Laurence M. Gould — WCX7445 — position and weather

sailwx.info

Track history (hours):
 
Tides and Currents Weather Stations Pressure Air Temp Water Temp Dewpoint Dewpoint Depression Visibility Wind Speed Wind Dir Waves Ship Positions

Oceanographic research ship Laurence M. Gould (USA)

Detailed information on ship capabilities available from University of Delaware's Ocean Information Center.

Owner: Offshore Service Vessels LLC, GALLIANO, LA. More information available from US FCC via Universal Licensing System and Coast Guard Vessel Documentation Center.

Last reported at 2015-May-22 09:00 UTC. Time now 2015-May-22 11:27 UTC.
Position S 63°30' W 062°36'.

Type: Other ship. MMSI: 368138000.

Wind from 060 at 15 knots

Barometer 958.7 mb
Air temperature -1.9 ° C
Water temperature -0.1 ° C

Date/timePositionNaut miles runAvg speedWind from/ knotsBaromVisibWave heightAir tempDewpointWater temp
2015-May-22 09:00S 63°30' W 062°36'6 1.5 060 / 15958.7 -1.9 -0.1
2015-May-22 05:00S 63°24' W 062°36'0 0.0 060 / 12958.2 -2.5 -0.1
2015-May-21 20:00S 63°24' W 062°36'6 6.0 010 / 13957.5 -1.8 -0.1
2015-May-21 19:00S 63°30' W 062°36'6 2.0 040 / 12957.0 -1.5 -0.0
2015-May-21 16:00S 63°24' W 062°36'3 2.7 010 / 14956.3 -2.6 -0.1
2015-May-21 15:00S 63°24' W 062°42'7 3.3 040 / 15956.6 -2.3 -0.0
2015-May-21 13:00S 63°30' W 062°36'3 0.9 090 / 13962.6 -0.4 -0.0
2015-May-21 10:00S 63°30' W 062°42'0 0.0 080 / 21964.8 -0.4 -0.0
2015-May-21 07:00S 63°30' W 062°42'1212.3 100 / 26967.9 -1.1 -0.0
2015-May-21 06:00S 63°42' W 062°48'18 4.5 090 / 26968.0 -1.2 -0.1
2015-May-21 02:00S 64°00' W 062°54'0 0.0 070 / 20983.4 -0.6 -0.1
2015-May-21 01:00S 64°00' W 062°54'36 4.5 140 / 12986.9 -0.8 -0.2
2015-May-20 17:00S 64°36' W 062°54'10 9.8 060 / 34990.0 -2.7 -0.4
2015-May-20 16:00S 64°42' W 063°12'21 6.8 060 / 38986.0 -3.5 -0.1
2015-May-20 13:00S 64°42' W 064°00'0 0.0 150 / 4987.1 -2.3 -0.3
2015-May-20 12:00S 64°42' W 064°00'0 0.0 080 / 2988.9 -3.6 -0.3
2015-May-20 10:00S 64°42' W 064°00'0 0.0 090 / 2992.0 -3.9 -0.3
2015-May-20 07:00S 64°42' W 064°00'0 0.0 010 / 4996.4 -5.0 -0.3
2015-May-20 04:00S 64°42' W 064°00'0 0.0 060 / 4999.8 -5.5 -0.3
2015-May-20 03:00S 64°42' W 064°00'10 0.6 030 / 61000.4 -5.9 -0.3
2015-May-19 10:00S 64°48' W 063°42'24 7.9 270 / 22998.0 -3.6 -0.4
2015-May-19 07:00S 64°36' W 062°54'29 9.8 240 / 26994.6 -2.5 -0.6
2015-May-19 04:00S 64°18' W 062°00'3310.9 230 / 24991.9 -1.9 -0.6
2015-May-19 01:00S 63°48' W 061°30'7 6.6 240 / 13990.8 -2.2 -1.0
2015-May-19 00:00S 63°42' W 061°24'4310.8 250 / 21991.5 -3.1 -0.9
2015-May-18 20:00S 63°00' W 061°48'1313.2 240 / 24991.9 -3.0 -0.1
2015-May-18 19:00S 62°48' W 062°00'20 9.9 230 / 21991.8 -2.9 -0.0
2015-May-18 17:00S 62°30' W 062°18'19 9.4 240 / 20992.3 -2.5 0.1
2015-May-18 15:00S 62°12' W 062°30'18 9.1 250 / 27993.5 -2.3 -0.1
2015-May-18 13:00S 61°54' W 062°36'18 9.1 250 / 28994.0 -2.1 -0.1
2015-May-18 11:00S 61°36' W 062°42'36 9.1 250 / 28993.4 -1.7 -0.1
2015-May-18 07:00S 61°00' W 062°54'18 9.1 260 / 34991.7 -1.1 0.4
2015-May-18 05:00S 60°42' W 063°00'4310.7 260 / 30990.6 -0.6 0.3
2015-May-18 01:00S 60°00' W 063°18'24 8.1 280 / 27988.8 0.2 0.3
2015-May-17 22:00S 59°36' W 063°24'1212.4 260 / 29987.5 0.4 0.9
2015-May-17 21:00S 59°24' W 063°30'37 9.1 260 / 27987.0 0.4 0.8
2015-May-17 17:00S 58°48' W 063°42'1212.0 260 / 23983.6 0.8 1.8
2015-May-17 16:00S 58°36' W 063°42'19 9.5 250 / 23982.9 1.1 2.6
2015-May-17 14:00S 58°18' W 063°54'2412.1 250 / 23981.3 1.5 3.6
2015-May-17 12:00S 57°54' W 064°00'18 9.1 240 / 26979.3 0.8 4.0
2015-May-17 10:00S 57°36' W 064°06'18 9.1 230 / 27976.3 2.2 4.9
2015-May-17 08:00S 57°18' W 064°12'7310.5 240 / 19973.5 4.3 5.3
2015-May-17 01:00S 56°06' W 064°36'3612.1 040 / 12969.9 3.6 3.9
2015-May-16 22:00S 55°30' W 064°42'3110.3 060 / 9970.2 4.8 4.5
2015-May-16 19:00S 55°00' W 064°54'6 6.0 010 / 13971.2 6.5 7.1
2015-May-16 18:00S 54°54' W 064°54'37 9.4 010 / 17972.0 6.4 7.8
2015-May-16 14:00S 54°18' W 065°12'1212.1 330 / 15976.6 6.4 7.5
2015-May-16 13:00S 54°12' W 065°30'2311.4 320 / 15976.3 6.2 7.5
2015-May-16 11:00S 53°54' W 065°54'19 9.3 320 / 12975.5 6.0 7.8
2015-May-16 09:00S 53°42' W 066°18'19 9.3 280 / 8976.2 5.8 8.0
2015-May-16 07:00S 53°30' W 066°42'140 9.3 260 / 14978.0 5.4 8.2
2015-May-15 16:00S 52°48' W 070°24'1312.5 030 / 15984.9 7.2 8.5
2015-May-15 15:00S 53°00' W 070°30'16 3.9 030 / 9985.6 6.8 8.5
2015-May-15 11:00S 53°06' W 070°54'0 0.0 160 / 4984.8 6.6 8.5
2015-May-15 10:00S 53°06' W 070°54'0 0.0 170 / 5984.1 6.7 8.5
2015-May-15 08:00S 53°06' W 070°54'0 0.0 130 / 5983.5 7.2 8.5
2015-May-15 04:00S 53°06' W 070°54'0 0.0 200 / 11978.2 5.8 8.5
2015-May-15 02:00S 53°06' W 070°54'0 0.0 240 / 2976.9 6.2 8.5
2015-May-15 01:00S 53°06' W 070°54'0 0.0 240 / 1976.4 5.9 8.5
2015-May-14 22:00S 53°06' W 070°54'0 0.0 230 / 3976.2 6.2 8.5
2015-May-14 21:00S 53°06' W 070°54'0 0.0 340 / 2976.5 6.4 8.5
2015-May-14 19:00S 53°06' W 070°54'0 0.0 020 / 5977.2 5.9 8.5
2015-May-14 13:00S 53°06' W 070°54'0 0.0 010 / 5982.6 4.2 8.5
2015-May-14 12:00S 53°06' W 070°54'0 0.0 020 / 6983.5 3.8 8.5
2015-May-14 09:00S 53°06' W 070°54'0 0.0 350 / 8987.3 3.8 8.5
2015-May-14 08:00S 53°06' W 070°54'0 0.0 030 / 6987.8 4.0 8.5
2015-May-14 07:00S 53°06' W 070°54'0 0.0 040 / 5987.9 4.4 8.5
2015-May-14 05:00S 53°06' W 070°54'0 0.0 300 / 6989.6 4.4 8.5
2015-May-14 03:00S 53°06' W 070°54'0 0.0 320 / 8990.8 5.3 8.5
2015-May-14 01:00S 53°06' W 070°54'0 0.0 300 / 6991.5 6.7 8.5
2015-May-13 23:00S 53°06' W 070°54'0 0.0 310 / 7991.4 6.8 8.5
2015-May-13 19:00S 53°06' W 070°54'0 0.0 280 / 9989.2 8.4 8.5
2015-May-13 18:00S 53°06' W 070°54'0 0.0 290 / 14988.8 8.2 8.5
2015-May-13 15:00S 53°06' W 070°54'0 0.0 290 / 6988.7 7.1 8.5
2015-May-13 10:00S 53°06' W 070°54'0 0.0 310 / 5987.0 6.2 8.5
2015-May-13 07:00S 53°06' W 070°54'0 0.0 330 / 11986.2 7.2 8.5
2015-May-13 05:00S 53°06' W 070°54'0 0.0 300 / 8985.5 8.0 8.5
2015-May-13 04:00S 53°06' W 070°54'0 0.0 280 / 5986.0 8.6 8.5
2015-May-13 02:00S 53°06' W 070°54'0 0.0 260 / 8985.5 8.9 8.5
2015-May-13 00:00S 53°06' W 070°54'0 0.0 310 / 5985.1 8.6 8.5
2015-May-12 22:00S 53°06' W 070°54'0 0.0 230 / 5985.5 8.0 8.5
2015-May-12 20:00S 53°06' W 070°54'0 0.0 200 / 11987.0 7.8 8.5
2015-May-12 19:00S 53°06' W 070°54'0 0.0 200 / 12987.9 7.8 8.5
2015-May-12 16:00S 53°06' W 070°54'0 0.0 190 / 12991.7 8.1 8.5
2015-May-12 15:00S 53°06' W 070°54'0 0.0 200 / 11992.8 8.1 8.5
2015-May-12 13:00S 53°06' W 070°54'0 0.0 220 / 12994.7 7.9 8.5
2015-May-12 10:00S 53°06' W 070°54'   230 / 11996.2 7.5 8.5
Track history (hours):
 
Tides and Currents Weather Stations Pressure Air Temp Water Temp Dewpoint Dewpoint Depression Visibility Wind Speed Wind Dir Waves Ship Positions

Oceanographic research ship Laurence M. Gould (USA)

Detailed information on ship capabilities available from University of Delaware's Ocean Information Center.

Owner: Offshore Service Vessels LLC, GALLIANO, LA. More information available from US FCC via Universal Licensing System and Coast Guard Vessel Documentation Center.

Last reported at 2015-May-22 09:00 UTC. Time now 2015-May-22 11:27 UTC.
Position S 63°30' W 062°36'.

Type: Other ship. MMSI: 368138000.

Wind from 060 at 15 knots

Barometer 958.7 mb
Air temperature -1.9 ° C
Water temperature -0.1 ° C

Date/timePositionNaut miles runAvg speedWind from/ knotsBaromVisibWave heightAir tempDewpointWater temp
2015-May-22 09:00S 63°30' W 062°36'6 1.5 060 / 15958.7 -1.9 -0.1
2015-May-22 05:00S 63°24' W 062°36'0 0.0 060 / 12958.2 -2.5 -0.1
2015-May-21 20:00S 63°24' W 062°36'6 6.0 010 / 13957.5 -1.8 -0.1
2015-May-21 19:00S 63°30' W 062°36'6 2.0 040 / 12957.0 -1.5 -0.0
2015-May-21 16:00S 63°24' W 062°36'3 2.7 010 / 14956.3 -2.6 -0.1
2015-May-21 15:00S 63°24' W 062°42'7 3.3 040 / 15956.6 -2.3 -0.0
2015-May-21 13:00S 63°30' W 062°36'3 0.9 090 / 13962.6 -0.4 -0.0
2015-May-21 10:00S 63°30' W 062°42'0 0.0 080 / 21964.8 -0.4 -0.0
2015-May-21 07:00S 63°30' W 062°42'1212.3 100 / 26967.9 -1.1 -0.0
2015-May-21 06:00S 63°42' W 062°48'18 4.5 090 / 26968.0 -1.2 -0.1
2015-May-21 02:00S 64°00' W 062°54'0 0.0 070 / 20983.4 -0.6 -0.1
2015-May-21 01:00S 64°00' W 062°54'36 4.5 140 / 12986.9 -0.8 -0.2
2015-May-20 17:00S 64°36' W 062°54'10 9.8 060 / 34990.0 -2.7 -0.4
2015-May-20 16:00S 64°42' W 063°12'21 6.8 060 / 38986.0 -3.5 -0.1
2015-May-20 13:00S 64°42' W 064°00'0 0.0 150 / 4987.1 -2.3 -0.3
2015-May-20 12:00S 64°42' W 064°00'0 0.0 080 / 2988.9 -3.6 -0.3
2015-May-20 10:00S 64°42' W 064°00'0 0.0 090 / 2992.0 -3.9 -0.3
2015-May-20 07:00S 64°42' W 064°00'0 0.0 010 / 4996.4 -5.0 -0.3
2015-May-20 04:00S 64°42' W 064°00'0 0.0 060 / 4999.8 -5.5 -0.3
2015-May-20 03:00S 64°42' W 064°00'10 0.6 030 / 61000.4 -5.9 -0.3
2015-May-19 10:00S 64°48' W 063°42'24 7.9 270 / 22998.0 -3.6 -0.4
2015-May-19 07:00S 64°36' W 062°54'29 9.8 240 / 26994.6 -2.5 -0.6
2015-May-19 04:00S 64°18' W 062°00'3310.9 230 / 24991.9 -1.9 -0.6
2015-May-19 01:00S 63°48' W 061°30'7 6.6 240 / 13990.8 -2.2 -1.0
2015-May-19 00:00S 63°42' W 061°24'4310.8 250 / 21991.5 -3.1 -0.9
2015-May-18 20:00S 63°00' W 061°48'1313.2 240 / 24991.9 -3.0 -0.1
2015-May-18 19:00S 62°48' W 062°00'20 9.9 230 / 21991.8 -2.9 -0.0
2015-May-18 17:00S 62°30' W 062°18'19 9.4 240 / 20992.3 -2.5 0.1
2015-May-18 15:00S 62°12' W 062°30'18 9.1 250 / 27993.5 -2.3 -0.1
2015-May-18 13:00S 61°54' W 062°36'18 9.1 250 / 28994.0 -2.1 -0.1
2015-May-18 11:00S 61°36' W 062°42'36 9.1 250 / 28993.4 -1.7 -0.1
2015-May-18 07:00S 61°00' W 062°54'18 9.1 260 / 34991.7 -1.1 0.4
2015-May-18 05:00S 60°42' W 063°00'4310.7 260 / 30990.6 -0.6 0.3
2015-May-18 01:00S 60°00' W 063°18'24 8.1 280 / 27988.8 0.2 0.3
2015-May-17 22:00S 59°36' W 063°24'1212.4 260 / 29987.5 0.4 0.9
2015-May-17 21:00S 59°24' W 063°30'37 9.1 260 / 27987.0 0.4 0.8
2015-May-17 17:00S 58°48' W 063°42'1212.0 260 / 23983.6 0.8 1.8
2015-May-17 16:00S 58°36' W 063°42'19 9.5 250 / 23982.9 1.1 2.6
2015-May-17 14:00S 58°18' W 063°54'2412.1 250 / 23981.3 1.5 3.6
2015-May-17 12:00S 57°54' W 064°00'18 9.1 240 / 26979.3 0.8 4.0
2015-May-17 10:00S 57°36' W 064°06'18 9.1 230 / 27976.3 2.2 4.9
2015-May-17 08:00S 57°18' W 064°12'7310.5 240 / 19973.5 4.3 5.3
2015-May-17 01:00S 56°06' W 064°36'3612.1 040 / 12969.9 3.6 3.9
2015-May-16 22:00S 55°30' W 064°42'3110.3 060 / 9970.2 4.8 4.5
2015-May-16 19:00S 55°00' W 064°54'6 6.0 010 / 13971.2 6.5 7.1
2015-May-16 18:00S 54°54' W 064°54'37 9.4 010 / 17972.0 6.4 7.8
2015-May-16 14:00S 54°18' W 065°12'1212.1 330 / 15976.6 6.4 7.5
2015-May-16 13:00S 54°12' W 065°30'2311.4 320 / 15976.3 6.2 7.5
2015-May-16 11:00S 53°54' W 065°54'19 9.3 320 / 12975.5 6.0 7.8
2015-May-16 09:00S 53°42' W 066°18'19 9.3 280 / 8976.2 5.8 8.0
2015-May-16 07:00S 53°30' W 066°42'140 9.3 260 / 14978.0 5.4 8.2
2015-May-15 16:00S 52°48' W 070°24'1312.5 030 / 15984.9 7.2 8.5
2015-May-15 15:00S 53°00' W 070°30'16 3.9 030 / 9985.6 6.8 8.5
2015-May-15 11:00S 53°06' W 070°54'0 0.0 160 / 4984.8 6.6 8.5
2015-May-15 10:00S 53°06' W 070°54'0 0.0 170 / 5984.1 6.7 8.5
2015-May-15 08:00S 53°06' W 070°54'0 0.0 130 / 5983.5 7.2 8.5
2015-May-15 04:00S 53°06' W 070°54'0 0.0 200 / 11978.2 5.8 8.5
2015-May-15 02:00S 53°06' W 070°54'0 0.0 240 / 2976.9 6.2 8.5
2015-May-15 01:00S 53°06' W 070°54'0 0.0 240 / 1976.4 5.9 8.5
2015-May-14 22:00S 53°06' W 070°54'0 0.0 230 / 3976.2 6.2 8.5
2015-May-14 21:00S 53°06' W 070°54'0 0.0 340 / 2976.5 6.4 8.5
2015-May-14 19:00S 53°06' W 070°54'0 0.0 020 / 5977.2 5.9 8.5
2015-May-14 13:00S 53°06' W 070°54'0 0.0 010 / 5982.6 4.2 8.5
2015-May-14 12:00S 53°06' W 070°54'0 0.0 020 / 6983.5 3.8 8.5
2015-May-14 09:00S 53°06' W 070°54'0 0.0 350 / 8987.3 3.8 8.5
2015-May-14 08:00S 53°06' W 070°54'0 0.0 030 / 6987.8 4.0 8.5
2015-May-14 07:00S 53°06' W 070°54'0 0.0 040 / 5987.9 4.4 8.5
2015-May-14 05:00S 53°06' W 070°54'0 0.0 300 / 6989.6 4.4 8.5
2015-May-14 03:00S 53°06' W 070°54'0 0.0 320 / 8990.8 5.3 8.5
2015-May-14 01:00S 53°06' W 070°54'0 0.0 300 / 6991.5 6.7 8.5
2015-May-13 23:00S 53°06' W 070°54'0 0.0 310 / 7991.4 6.8 8.5
2015-May-13 19:00S 53°06' W 070°54'0 0.0 280 / 9989.2 8.4 8.5
2015-May-13 18:00S 53°06' W 070°54'0 0.0 290 / 14988.8 8.2 8.5
2015-May-13 15:00S 53°06' W 070°54'0 0.0 290 / 6988.7 7.1 8.5
2015-May-13 10:00S 53°06' W 070°54'0 0.0 310 / 5987.0 6.2 8.5
2015-May-13 07:00S 53°06' W 070°54'0 0.0 330 / 11986.2 7.2 8.5
2015-May-13 05:00S 53°06' W 070°54'0 0.0 300 / 8985.5 8.0 8.5
2015-May-13 04:00S 53°06' W 070°54'0 0.0 280 / 5986.0 8.6 8.5
2015-May-13 02:00S 53°06' W 070°54'0 0.0 260 / 8985.5 8.9 8.5
2015-May-13 00:00S 53°06' W 070°54'0 0.0 310 / 5985.1 8.6 8.5
2015-May-12 22:00S 53°06' W 070°54'0 0.0 230 / 5985.5 8.0 8.5
2015-May-12 20:00S 53°06' W 070°54'0 0.0 200 / 11987.0 7.8 8.5
2015-May-12 19:00S 53°06' W 070°54'0 0.0 200 / 12987.9 7.8 8.5
2015-May-12 16:00S 53°06' W 070°54'0 0.0 190 / 12991.7 8.1 8.5
2015-May-12 15:00S 53°06' W 070°54'0 0.0 200 / 11992.8 8.1 8.5
2015-May-12 13:00S 53°06' W 070°54'0 0.0 220 / 12994.7 7.9 8.5
2015-May-12 10:00S 53°06' W 070°54'   230 / 11996.2 7.5 8.5

Dump ship's entire track history